Aérodrome :
LOGIN :

S'inscrire | Disclaimer

   EN    FR    IT 

 










Légende :    VFR   VFR Marginal   IFR   IFR Intensif   IFR Très Intensif
Visi : 
Plafond : 
>= 8 km
>= 3000ft
5 à 8 km
1000 à 3000 ft
1500m à 5 km
500 à 1000 ft
800 à 1500m
200 à 500 ft
< 800m
< 200 ft
Symboles :   Orages  Brouillard  Fortes neiges  Fortes précipitations  Vent > 20 kt
SIGMETs :   Divers  Orages  Givrage  Turbulence  Onde Orograph.  Cendres Volcan.






- Altitude de l'aérodrome : 1411 ft
- Code IATA : SZG


LOWS - Salzburg

DERNIER METAR :
  • 141120Z 35007KT 330V040 9999 FEW045 SCT100 19/11 Q1015 NOSIG

METARs EXPIRÉS :
  • 141050Z 33008KT 310V010 9999 FEW060 SCT110 19/12 Q1015 NOSIG
  • 141020Z 33005KT 300V010 9999 FEW060 SCT120 19/09 Q1015 NOSIG
  • 140950Z VRB02KT 9999 FEW060 SCT100 19/10 Q1014 NOSIG
  • 140920Z AUTO VRB03KT 9999 SCT070 19/09 Q1014 NOSIG
  • 140850Z AUTO 15004KT 060V190 CAVOK 18/09 Q1014 NOSIG
  • 140820Z AUTO 14004KT 100V180 9999 FEW080 17/09 Q1014 NOSIG
  • 140750Z AUTO 15004KT 100V180 CAVOK 16/09 Q1015 NOSIG
  • 140720Z AUTO 16006KT CAVOK 15/08 Q1014 NOSIG
  • 140650Z AUTO 15008KT CAVOK 15/08 Q1015 NOSIG

TAF TAF LOWS
Valide du 14 à 12h jusqu'au 15 à 12h UTC


141115Z 1412/1512 34006KT 9999 FEW060 SCT100 TX20/1510Z TN13/1503Z
BECMG 1416/1418 15007KT CAVOK
BECMG 1508/1510 30008KT 9999 SCT050 BKN100
TEMPO 1508/1512 32015G30KT -SHRA



MET'MAP, la Météo Aéronautique d'un coup d'oeil ! - Copyright ORBIFLY Décembre 2007 - Disclaimer

ORBIFLY MET'MAP TEAM :

Programmation & Développement : Alexandra Zaïnal
Sur une idée originale de : Baudouin d'Aumeries
Soutien technique & logistique : Manuel Goepfert
Assistance : Marc-Olivier Méhu




SOURCES & CREDITS :

   NOAA